Slaughter, Louisiana
Current Conditions -  °F | °C
As of 7:53 AM on Thursday 23 Oct 2014 (Local Time) from KBTR Reporting Station
Clear Clear  
Wind Chill: 52°   Ceiling: Unl
Heat Index: 52°   Visibility: 10mi
Dew Point: 46°   Wind: 6mph
Humidity: 80%   Direction: 30°NNE
Pressure: 30.11"   Gusts: NA
Location:  30.72°N, 91.14°W
Report Text: KBTR 231253Z AUTO 03005KT 10SM CLR 11/08 A3011 RMK AO2 SLP196 T01110078 TSNO
Loading
Personal Weather Stations






























Interactive Weather Map
Tropical Storm Tracking
New forecast layout! Learn more

10-Day Weather Forecast

Advertisements
Track Severe Weather on mobile